createdAt,value
2022-09-18T00:03:24.218Z,1.10
2022-09-18T00:08:26.630Z,1.00
2022-09-18T00:13:28.966Z,1.00
2022-09-18T00:18:31.572Z,0.97
2022-09-18T00:23:34.399Z,0.97
2022-09-18T00:28:37.137Z,1.07
2022-09-18T00:33:40.191Z,0.90
2022-09-18T00:38:42.967Z,1.10
2022-09-18T00:43:45.809Z,1.03
2022-09-18T00:49:25.183Z,1.17
2022-09-18T00:54:47.211Z,1.10
2022-09-18T00:59:51.704Z,1.37
2022-09-18T01:04:54.534Z,1.17
2022-09-18T01:10:39.606Z,1.07
2022-09-18T01:15:47.776Z,0.90
2022-09-18T01:21:08.768Z,0.80
2022-09-18T01:26:33.679Z,0.93
2022-09-18T01:31:44.311Z,1.07
2022-09-18T01:36:52.074Z,1.03
2022-09-18T01:41:57.214Z,1.20
2022-09-18T01:47:01.611Z,1.20
2022-09-18T01:52:16.236Z,1.10
2022-09-18T01:57:25.492Z,1.10
2022-09-18T02:02:42.270Z,1.03
2022-09-18T02:07:52.203Z,0.87
2022-09-18T02:12:56.843Z,1.10
2022-09-18T02:18:06.626Z,1.20
2022-09-18T02:23:14.900Z,1.00
2022-09-18T02:28:20.787Z,1.50
2022-09-18T02:33:34.983Z,1.63
2022-09-18T02:39:14.962Z,1.50
2022-09-18T02:44:59.044Z,25.90
2022-09-18T02:50:28.311Z,2.00
2022-09-18T02:55:44.295Z,1.60
2022-09-18T03:00:49.018Z,1.03
2022-09-18T03:05:56.270Z,2.57
2022-09-18T03:10:59.151Z,2.07
2022-09-18T03:16:03.330Z,1.67
2022-09-18T03:21:06.432Z,1.73
2022-09-18T03:26:08.958Z,1.30
2022-09-18T03:31:11.910Z,1.40
2022-09-18T03:36:14.530Z,1.43
2022-09-18T03:41:17.091Z,2.67
2022-09-18T03:46:24.139Z,1.73
2022-09-18T03:51:30.437Z,1.60
2022-09-18T03:56:32.918Z,1.70
2022-09-18T04:01:44.114Z,1.30
2022-09-18T04:07:01.652Z,1.70
2022-09-18T04:12:22.365Z,1.77
2022-09-18T04:17:38.942Z,2.07
2022-09-18T04:22:43.604Z,2.60
2022-09-18T04:27:46.201Z,3.40
2022-09-18T04:32:49.667Z,4.07
2022-09-18T04:37:53.508Z,4.23
2022-09-18T04:42:56.166Z,4.80
2022-09-18T04:47:58.634Z,5.30
2022-09-18T04:53:02.004Z,5.53
2022-09-18T04:58:05.346Z,5.60
2022-09-18T05:03:09.361Z,6.10
2022-09-18T05:08:14.412Z,6.10
2022-09-18T05:13:16.930Z,6.30
2022-09-18T05:18:32.635Z,5.90
2022-09-18T05:23:37.738Z,6.40
2022-09-18T05:28:40.938Z,6.40
2022-09-18T05:33:44.731Z,6.73
2022-09-18T05:38:48.678Z,6.40
2022-09-18T05:43:51.133Z,5.83
2022-09-18T05:48:54.007Z,6.43
2022-09-18T05:53:56.455Z,6.17
2022-09-18T05:59:02.203Z,6.00
2022-09-18T06:04:05.878Z,6.40
2022-09-18T06:09:21.044Z,7.40
2022-09-18T06:14:24.313Z,8.43
2022-09-18T06:19:26.886Z,8.40
2022-09-18T06:24:29.282Z,9.73
2022-09-18T06:29:41.731Z,9.77
2022-09-18T06:34:47.943Z,10.47
2022-09-18T06:39:51.004Z,11.03
2022-09-18T06:45:16.179Z,11.03
2022-09-18T06:50:25.433Z,11.00
2022-09-18T06:55:28.468Z,11.17
2022-09-18T07:00:31.541Z,9.43
2022-09-18T07:05:41.589Z,8.57
2022-09-18T07:10:44.915Z,6.97
2022-09-18T07:15:48.036Z,6.43
2022-09-18T07:20:51.714Z,6.90
2022-09-18T07:26:06.162Z,5.97
2022-09-18T07:31:09.949Z,3.40
2022-09-18T07:36:12.502Z,2.80
2022-09-18T07:41:14.991Z,2.80
2022-09-18T07:46:19.983Z,2.17
2022-09-18T07:51:26.422Z,1.80
2022-09-18T07:56:30.780Z,1.70
2022-09-18T08:01:34.572Z,2.07
2022-09-18T08:06:38.900Z,1.37
2022-09-18T08:11:59.158Z,1.30
2022-09-18T08:17:27.118Z,1.10
2022-09-18T08:22:54.630Z,1.10
2022-09-18T08:28:05.952Z,0.80
2022-09-18T08:33:18.625Z,0.90
2022-09-18T08:38:21.938Z,0.90
2022-09-18T08:43:58.592Z,0.60
2022-09-18T08:49:23.045Z,0.50
2022-09-18T08:54:41.050Z,0.50
2022-09-18T09:00:16.917Z,0.50
2022-09-18T09:05:31.099Z,0.70
2022-09-18T09:10:42.728Z,0.40
2022-09-18T09:16:00.137Z,2.33
2022-09-18T09:21:24.549Z,4.13
2022-09-18T09:26:28.332Z,0.50
2022-09-18T09:31:44.356Z,0.97
2022-09-18T09:37:18.279Z,0.20
2022-09-18T09:42:42.211Z,0.40
2022-09-18T09:48:07.081Z,1.17
2022-09-18T09:53:12.846Z,1.43
2022-09-18T09:58:30.364Z,2.07
2022-09-18T10:03:59.035Z,0.70
2022-09-18T10:09:39.296Z,1.70
2022-09-18T10:14:43.945Z,1.30
2022-09-18T10:19:47.730Z,1.17
2022-09-18T10:24:53.597Z,1.37
2022-09-18T10:29:56.711Z,2.57
2022-09-18T10:35:30.605Z,6.23
2022-09-18T10:40:40.303Z,5.60
2022-09-18T10:45:52.599Z,5.10
2022-09-18T10:51:20.898Z,3.97
2022-09-18T10:56:25.770Z,4.63
2022-09-18T11:01:31.878Z,3.60
2022-09-18T11:06:37.443Z,3.93
2022-09-18T11:12:02.043Z,4.27
2022-09-18T11:17:20.465Z,3.40
2022-09-18T11:22:43.008Z,2.90
2022-09-18T11:27:55.867Z,2.87
2022-09-18T11:33:24.183Z,2.90
2022-09-18T11:38:30.038Z,1.70
2022-09-18T11:43:38.306Z,1.80
2022-09-18T11:48:49.248Z,1.80
2022-09-18T11:53:55.491Z,1.43
2022-09-18T11:59:17.963Z,1.60
2022-09-18T12:04:31.793Z,1.20
2022-09-18T12:09:44.991Z,1.50
2022-09-18T12:15:03.259Z,1.00
2022-09-18T12:20:13.692Z,1.10
2022-09-18T12:25:20.379Z,1.00
2022-09-18T12:30:57.475Z,1.17
2022-09-18T12:36:19.189Z,1.20
2022-09-18T12:41:52.388Z,1.10
2022-09-18T12:47:12.535Z,1.40
2022-09-18T12:53:08.511Z,1.27
2022-09-18T12:58:39.425Z,1.27
2022-09-18T13:03:43.882Z,1.10
2022-09-18T13:08:56.301Z,0.97
2022-09-18T13:14:21.805Z,0.90
2022-09-18T13:19:43.703Z,1.47
2022-09-18T13:24:49.784Z,1.00
2022-09-18T13:29:52.429Z,1.00
2022-09-18T13:34:57.744Z,1.03
2022-09-18T13:40:11.192Z,1.60
2022-09-18T13:45:25.909Z,1.20
2022-09-18T13:50:29.823Z,1.20
2022-09-18T13:55:49.443Z,1.10
2022-09-18T14:00:52.567Z,0.90
2022-09-18T14:05:55.129Z,0.93
2022-09-18T14:11:15.040Z,1.10
2022-09-18T14:16:24.062Z,0.90
2022-09-18T14:21:31.816Z,0.63
2022-09-18T14:26:37.179Z,0.70
2022-09-18T14:31:48.390Z,0.80
2022-09-18T14:37:01.454Z,0.80
2022-09-18T14:42:11.531Z,1.10
2022-09-18T14:47:21.362Z,1.17
2022-09-18T14:52:25.479Z,1.10
2022-09-18T14:57:34.441Z,0.90
2022-09-18T15:02:37.192Z,0.93
2022-09-18T15:07:40.902Z,1.00
2022-09-18T15:12:43.978Z,1.20
2022-09-18T15:17:51.233Z,0.60
2022-09-18T15:22:54.545Z,0.93
2022-09-18T15:28:01.260Z,0.80
2022-09-18T15:33:12.682Z,0.70
2022-09-18T15:38:18.262Z,0.87
2022-09-18T15:43:29.678Z,0.87
2022-09-18T15:48:35.188Z,0.90
2022-09-18T15:53:38.599Z,0.90
2022-09-18T15:58:47.078Z,1.00
2022-09-18T16:03:59.480Z,0.80
2022-09-18T16:09:05.404Z,0.87
2022-09-18T16:14:43.733Z,0.70
2022-09-18T16:19:46.883Z,1.17
2022-09-18T16:24:49.795Z,0.67
2022-09-18T16:29:52.166Z,1.07
2022-09-18T16:34:54.859Z,0.90
2022-09-18T16:39:57.296Z,3.13
2022-09-18T16:45:00.872Z,1.33
2022-09-18T16:50:03.450Z,10.77
2022-09-18T16:55:07.381Z,8.60
2022-09-18T17:00:10.818Z,5.37
2022-09-18T17:05:13.185Z,1.27
2022-09-18T17:10:15.646Z,2.33
2022-09-18T17:15:18.062Z,1.57
2022-09-18T17:20:20.814Z,1.50
2022-09-18T17:25:23.235Z,1.20
2022-09-18T17:30:25.829Z,1.30
2022-09-18T17:35:28.413Z,1.20
2022-09-18T17:40:30.943Z,1.87
2022-09-18T17:45:33.612Z,1.50
2022-09-18T17:50:35.948Z,1.03
2022-09-18T17:55:38.285Z,0.90
2022-09-18T18:00:40.678Z,6.30
2022-09-18T18:05:52.004Z,1.33
2022-09-18T18:10:57.075Z,1.30
2022-09-18T18:16:07.699Z,1.90
2022-09-18T18:21:10.841Z,1.80
2022-09-18T18:26:13.666Z,1.43
2022-09-18T18:31:17.115Z,1.40
2022-09-18T18:36:22.581Z,1.70
2022-09-18T18:41:26.586Z,1.20
2022-09-18T18:46:35.949Z,2.73
2022-09-18T18:51:43.006Z,2.13
2022-09-18T18:56:47.064Z,2.63
2022-09-18T19:01:49.817Z,6.80
2022-09-18T19:06:53.310Z,2.17
2022-09-18T19:11:56.267Z,2.40
2022-09-18T19:16:59.143Z,1.90
2022-09-18T19:22:01.859Z,1.97
2022-09-18T19:27:04.300Z,2.30
2022-09-18T19:32:09.043Z,2.30
2022-09-18T19:37:13.503Z,2.40
2022-09-18T19:42:17.600Z,3.37
2022-09-18T19:47:26.296Z,2.63
2022-09-18T19:52:29.201Z,3.10
2022-09-18T19:57:31.562Z,2.73
2022-09-18T20:02:34.001Z,2.90
2022-09-18T20:07:40.169Z,2.77
2022-09-18T20:12:42.689Z,3.10
2022-09-18T20:17:45.075Z,2.70
2022-09-18T20:22:47.511Z,2.70
2022-09-18T20:27:49.868Z,2.80
2022-09-18T20:32:54.409Z,2.07
2022-09-18T20:38:00.109Z,2.80
2022-09-18T20:43:04.372Z,2.20
2022-09-18T20:48:06.962Z,2.20
2022-09-18T20:53:09.349Z,2.20
2022-09-18T20:58:11.733Z,2.00
2022-09-18T21:03:14.278Z,2.20
2022-09-18T21:08:16.738Z,2.23
2022-09-18T21:13:20.067Z,2.07
2022-09-18T21:18:23.983Z,2.30
2022-09-18T21:23:44.960Z,1.97
2022-09-18T21:28:54.731Z,1.90
2022-09-18T21:33:58.944Z,1.77
2022-09-18T21:39:01.640Z,2.17
2022-09-18T21:44:06.674Z,1.70
2022-09-18T21:49:09.974Z,1.90
2022-09-18T21:54:18.543Z,2.10
2022-09-18T21:59:31.058Z,2.07
2022-09-18T22:04:33.977Z,2.00
2022-09-18T22:09:39.498Z,2.17
2022-09-18T22:14:41.881Z,2.00
2022-09-18T22:19:44.306Z,1.80
2022-09-18T22:24:46.751Z,2.13
2022-09-18T22:29:50.022Z,1.80
2022-09-18T22:34:53.210Z,1.70
2022-09-18T22:39:56.170Z,1.70
2022-09-18T22:44:58.573Z,1.70
2022-09-18T22:50:00.966Z,1.60
2022-09-18T22:55:03.830Z,1.60
2022-09-18T23:00:07.282Z,1.80
2022-09-18T23:05:09.665Z,1.70
2022-09-18T23:10:12.246Z,1.80
2022-09-18T23:15:14.682Z,1.70
2022-09-18T23:20:17.551Z,1.40
2022-09-18T23:25:19.925Z,1.40
2022-09-18T23:30:22.347Z,1.17
2022-09-18T23:35:24.761Z,1.60
2022-09-18T23:40:28.031Z,1.37
2022-09-18T23:45:30.441Z,1.20
2022-09-18T23:50:34.368Z,1.50
2022-09-18T23:55:36.718Z,1.57
